Time;durP1;ratioP1;P1;durP2;ratioP2;P2;SDS_P1;SDS_P2;PMS_P1;PMS_P2;Temp;Humidity;BMP_temperature;BMP_pressure;BME280_temperature;BME280_humidity;BME280_pressure;Samples;Min_cycle;Max_cycle;Signal;HPM_P1;HPM_P2
2022/03/06 00:02:05;;;;;;;13.40;9.18;;;2.90;99.90;;;;;;5110589;28;20036;-77
2022/03/06 00:04:31;;;;;;;14.63;11.38;;;2.30;99.90;;;;;;5094056;28;20041;-75
2022/03/06 00:06:57;;;;;;;13.45;10.35;;;2.50;99.90;;;;;;5096123;27;20154;-76
2022/03/06 00:09:23;;;;;;;13.48;10.25;;;2.70;99.90;;;;;;5109950;27;20131;-76
2022/03/06 00:11:50;;;;;;;13.27;10.48;;;2.30;99.90;;;;;;5099988;28;20041;-74
2022/03/06 00:14:16;;;;;;;12.75;9.52;;;2.70;99.90;;;;;;5085376;28;20055;-74
2022/03/06 00:16:42;;;;;;;28.73;11.10;;;2.70;99.90;;;;;;5088703;28;20070;-74
2022/03/06 00:19:08;;;;;;;13.45;9.77;;;2.40;99.90;;;;;;5093977;27;20097;-74
2022/03/06 00:21:35;;;;;;;12.50;9.50;;;2.80;99.90;;;;;;5092158;28;20039;-76
2022/03/06 00:24:01;;;;;;;12.82;8.85;;;2.70;99.90;;;;;;5115703;27;20039;-73
2022/03/06 00:26:27;;;;;;;13.25;9.43;;;2.60;99.90;;;;;;5091271;28;20101;-77
2022/03/06 00:28:53;;;;;;;12.93;8.52;;;2.80;99.90;;;;;;5114723;27;20043;-73
2022/03/06 00:31:18;;;;;;;11.70;8.88;;;2.80;99.90;;;;;;5121676;28;20043;-73
2022/03/06 00:33:44;;;;;;;10.88;8.05;;;2.50;99.90;;;;;;5111361;28;20052;-76
2022/03/06 00:36:10;;;;;;;11.68;8.90;;;2.80;99.90;;;;;;5090977;28;20032;-76
2022/03/06 00:38:36;;;;;;;15.45;8.63;;;2.40;99.90;;;;;;5091447;28;20407;-76
2022/03/06 00:41:01;;;;;;;10.50;8.13;;;2.40;99.90;;;;;;5109587;28;20028;-75
2022/03/06 00:43:27;;;;;;;10.98;7.38;;;1.40;99.90;;;;;;5104261;27;20032;-75
2022/03/06 00:45:53;;;;;;;10.95;7.57;;;3.00;99.90;;;;;;5105564;27;20038;-77
2022/03/06 00:48:19;;;;;;;11.75;8.35;;;2.50;99.90;;;;;;5089354;28;20036;-75
2022/03/06 00:50:45;;;;;;;10.40;7.38;;;2.50;99.90;;;;;;5110490;28;20058;-74
2022/03/06 00:53:11;;;;;;;12.80;8.15;;;2.90;99.90;;;;;;5110047;28;20067;-74
2022/03/06 00:55:37;;;;;;;11.70;7.95;;;2.60;99.90;;;;;;5110850;28;20468;-75
2022/03/06 00:58:06;;;;;;;11.40;6.97;;;3.20;99.90;;;;;;5099242;28;20145;-74
2022/03/06 01:00:45;;;;;;;10.38;7.38;;;2.90;99.90;;;;;;5080946;28;20121;-74
2022/03/06 01:03:15;;;;;;;11.00;7.60;;;2.60;99.90;;;;;;5092062;28;20462;-77
2022/03/06 01:05:41;;;;;;;11.32;7.82;;;4.10;99.90;;;;;;5087743;28;20043;-75
2022/03/06 01:08:07;;;;;;;9.95;7.55;;;4.60;99.90;;;;;;5105059;28;20153;-76
2022/03/06 01:10:34;;;;;;;10.15;7.30;;;3.00;99.90;;;;;;5093176;28;20035;-75
2022/03/06 01:13:00;;;;;;;10.30;7.35;;;4.10;99.90;;;;;;5109512;28;20050;-76
2022/03/06 01:15:26;;;;;;;10.65;7.03;;;2.90;99.90;;;;;;5077634;28;20437;-76
2022/03/06 01:17:52;;;;;;;13.63;7.80;;;3.00;99.90;;;;;;5066398;28;20039;-76
2022/03/06 01:20:19;;;;;;;10.10;6.75;;;2.90;99.90;;;;;;5098626;28;20046;-74
2022/03/06 01:22:46;;;;;;;9.57;6.85;;;3.50;99.90;;;;;;5126395;28;20130;-74
2022/03/06 01:25:12;;;;;;;9.30;6.55;;;2.80;99.90;;;;;;5110435;28;20449;-76
2022/03/06 01:27:37;;;;;;;8.45;6.65;;;3.00;99.90;;;;;;5109109;28;20039;-74
2022/03/06 01:30:05;;;;;;;8.57;6.82;;;3.10;99.90;;;;;;5092104;28;20044;-76
2022/03/06 01:32:32;;;;;;;10.18;7.28;;;3.00;99.90;;;;;;5092181;28;20925;-74
2022/03/06 01:34:58;;;;;;;11.32;7.45;;;3.40;99.90;;;;;;5108629;28;20506;-74
2022/03/06 01:37:24;;;;;;;9.48;6.85;;;3.70;99.90;;;;;;5102750;28;20031;-75
2022/03/06 01:39:50;;;;;;;10.57;6.90;;;2.70;99.90;;;;;;5079628;28;20043;-74
2022/03/06 01:42:16;;;;;;;10.00;7.15;;;2.50;99.90;;;;;;5071900;28;20048;-75
2022/03/06 01:44:45;;;;;;;9.40;6.88;;;2.80;99.90;;;;;;5080903;28;20031;-76
2022/03/06 01:47:10;;;;;;;9.25;6.60;;;2.60;99.90;;;;;;5108170;28;20047;-76
2022/03/06 01:49:36;;;;;;;9.80;7.05;;;3.00;99.90;;;;;;5074913;28;20040;-74
2022/03/06 01:52:03;;;;;;;10.70;6.80;;;2.90;99.90;;;;;;5107945;28;20475;-76
2022/03/06 01:54:28;;;;;;;9.30;6.60;;;3.00;99.90;;;;;;5092407;28;20039;-74
2022/03/06 01:56:54;;;;;;;10.65;7.00;;;2.80;99.90;;;;;;5109911;28;20388;-74
2022/03/06 01:59:23;;;;;;;10.25;6.68;;;2.60;99.90;;;;;;5122031;28;20039;-75
2022/03/06 02:01:49;;;;;;;9.13;6.47;;;3.00;99.90;;;;;;5108497;28;20039;-75
2022/03/06 02:04:15;;;;;;;9.50;6.45;;;2.50;99.90;;;;;;5090354;28;20058;-76
2022/03/06 02:06:42;;;;;;;8.77;6.30;;;3.10;99.90;;;;;;5079820;28;20067;-75
2022/03/06 02:09:08;;;;;;;8.45;6.60;;;3.50;99.90;;;;;;5090595;28;20039;-75
2022/03/06 02:11:34;;;;;;;8.98;6.18;;;2.60;99.90;;;;;;5090524;28;20047;-73
2022/03/06 02:14:02;;;;;;;9.10;6.25;;;4.00;99.90;;;;;;5091022;28;20059;-75
2022/03/06 02:16:31;;;;;;;8.07;5.95;;;3.00;99.90;;;;;;5103977;28;20069;-76
2022/03/06 02:18:57;;;;;;;10.00;5.93;;;2.70;99.90;;;;;;5121434;28;20035;-74
2022/03/06 02:21:22;;;;;;;9.52;5.93;;;2.80;99.90;;;;;;5075378;28;20027;-75
2022/03/06 02:23:48;;;;;;;6.50;5.32;;;4.20;99.90;;;;;;5092321;28;20039;-75
2022/03/06 02:26:14;;;;;;;6.72;5.28;;;3.40;99.90;;;;;;5091751;28;20031;-75
2022/03/06 02:28:41;;;;;;;7.20;5.38;;;2.90;99.90;;;;;;5064055;28;20433;-75
2022/03/06 02:31:08;;;;;;;8.13;5.03;;;3.10;99.90;;;;;;5103684;28;20047;-75
2022/03/06 02:33:34;;;;;;;8.27;5.20;;;3.00;99.90;;;;;;5081057;28;20425;-76
2022/03/06 02:36:00;;;;;;;11.77;6.00;;;3.20;99.90;;;;;;5092082;28;20048;-75
2022/03/06 02:38:25;;;;;;;8.15;4.70;;;4.30;99.90;;;;;;5070970;28;20387;-75
2022/03/06 02:40:53;;;;;;;7.30;4.20;;;4.10;99.90;;;;;;5096255;28;20031;-74
2022/03/06 02:43:18;;;;;;;8.05;4.75;;;3.30;99.90;;;;;;5095345;28;20043;-74
2022/03/06 02:45:44;;;;;;;7.97;5.07;;;3.10;99.90;;;;;;5112623;28;20039;-75
2022/03/06 02:48:10;;;;;;;5.75;4.20;;;3.30;99.90;;;;;;5111563;28;20047;-76
2022/03/06 02:50:37;;;;;;;6.82;4.50;;;3.40;99.90;;;;;;5100563;27;20047;-75
2022/03/06 02:53:09;;;;;;;6.65;4.22;;;3.20;99.90;;;;;;5095050;28;20080;-75
2022/03/06 02:55:35;;;;;;;5.65;4.10;;;2.80;99.90;;;;;;5078929;28;20410;-75
2022/03/06 02:58:01;;;;;;;5.93;4.63;;;3.00;99.90;;;;;;5095029;28;20071;-75
2022/03/06 03:00:27;;;;;;;8.38;5.05;;;3.50;99.90;;;;;;5111869;27;20043;-76
2022/03/06 03:02:53;;;;;;;6.80;4.60;;;3.00;99.90;;;;;;5095230;28;20047;-77
2022/03/06 03:05:20;;;;;;;6.78;4.40;;;3.00;99.90;;;;;;5094908;28;20119;-76
2022/03/06 03:07:49;;;;;;;9.32;4.75;;;3.20;99.90;;;;;;5112083;28;20048;-76
2022/03/06 03:10:17;;;;;;;7.63;4.95;;;2.90;99.90;;;;;;5108704;27;20130;-75
2022/03/06 03:12:44;;;;;;;7.28;4.40;;;3.20;99.90;;;;;;5116384;27;20402;-75
2022/03/06 03:15:11;;;;;;;8.60;5.10;;;2.90;99.90;;;;;;5106915;28;20035;-75
2022/03/06 03:17:37;;;;;;;7.53;4.15;;;4.10;99.90;;;;;;5112924;27;20035;-77
2022/03/06 03:20:04;;;;;;;6.63;4.68;;;3.10;99.90;;;;;;5111244;27;20043;-74
2022/03/06 03:22:30;;;;;;;6.63;4.30;;;3.00;99.90;;;;;;5093738;28;20039;-74
2022/03/06 03:24:56;;;;;;;6.63;4.78;;;2.70;99.90;;;;;;5073814;28;20051;-75
2022/03/06 03:27:21;;;;;;;5.32;3.90;;;3.90;99.90;;;;;;5095630;27;20035;-77
2022/03/06 03:29:47;;;;;;;7.93;4.20;;;2.70;99.90;;;;;;5084261;27;20138;-74
2022/03/06 03:32:13;;;;;;;6.90;4.05;;;2.80;99.90;;;;;;5094357;28;20055;-76
2022/03/06 03:34:39;;;;;;;7.82;4.10;;;2.70;99.90;;;;;;5097627;27;20039;-74
2022/03/06 03:37:05;;;;;;;6.60;4.20;;;3.00;99.90;;;;;;5096975;28;20445;-75
2022/03/06 03:39:31;;;;;;;8.98;4.40;;;3.00;99.90;;;;;;5070215;28;20082;-75
2022/03/06 03:41:56;;;;;;;6.85;4.28;;;2.60;99.90;;;;;;5071451;27;20071;-75
2022/03/06 03:44:22;;;;;;;7.68;4.60;;;3.10;99.90;;;;;;5132324;27;20034;-75
2022/03/06 03:46:48;;;;;;;6.88;4.28;;;4.30;99.90;;;;;;5109420;27;20036;-75
2022/03/06 03:49:14;;;;;;;8.02;4.45;;;4.30;99.90;;;;;;5120975;27;20077;-76
2022/03/06 03:51:41;;;;;;;7.50;4.63;;;2.90;99.90;;;;;;5095437;28;20063;-75
2022/03/06 03:54:07;;;;;;;7.00;4.10;;;3.50;99.90;;;;;;5096423;28;20031;-74
2022/03/06 03:56:33;;;;;;;7.00;4.18;;;2.40;99.90;;;;;;5103063;28;20091;-75
2022/03/06 03:58:59;;;;;;;6.78;4.03;;;2.60;99.90;;;;;;5098571;28;20062;-75
2022/03/06 04:01:25;;;;;;;7.47;4.68;;;3.00;99.90;;;;;;5073049;28;20554;-76
2022/03/06 04:03:51;;;;;;;5.20;3.90;;;2.50;99.90;;;;;;5094120;28;20039;-74
2022/03/06 04:06:17;;;;;;;5.38;4.07;;;2.40;99.90;;;;;;5089330;28;20067;-75
2022/03/06 04:08:42;;;;;;;6.90;4.22;;;2.40;99.90;;;;;;5091256;28;20772;-76
2022/03/06 04:11:08;;;;;;;7.03;4.22;;;2.20;99.90;;;;;;5090735;28;20046;-75
2022/03/06 04:13:34;;;;;;;6.28;3.97;;;2.40;99.90;;;;;;5094287;28;20048;-73
2022/03/06 04:16:00;;;;;;;7.00;4.60;;;2.20;99.90;;;;;;5093965;28;20039;-73
2022/03/06 04:18:25;;;;;;;8.13;4.38;;;2.70;99.90;;;;;;5101061;28;20516;-74
2022/03/06 04:20:51;;;;;;;7.40;4.35;;;3.20;99.90;;;;;;5114600;27;20418;-73
2022/03/06 04:23:17;;;;;;;7.13;4.07;;;2.30;99.90;;;;;;5107629;28;20044;-74
2022/03/06 04:25:42;;;;;;;6.50;4.13;;;2.60;99.90;;;;;;5110803;28;20058;-74
2022/03/06 04:28:08;;;;;;;8.15;5.15;;;3.30;99.90;;;;;;5083414;28;20122;-75
2022/03/06 04:30:35;;;;;;;7.00;4.43;;;2.50;99.90;;;;;;5085237;28;20085;-75
2022/03/06 04:33:01;;;;;;;7.18;4.20;;;2.10;99.90;;;;;;5109829;28;20052;-75
2022/03/06 04:35:27;;;;;;;6.97;4.03;;;3.40;99.90;;;;;;5086194;27;20919;-75
2022/03/06 04:37:53;;;;;;;6.53;3.53;;;2.40;99.90;;;;;;5070673;28;20123;-75
2022/03/06 04:40:19;;;;;;;5.97;3.95;;;3.00;99.90;;;;;;5092048;28;20039;-77
2022/03/06 04:42:44;;;;;;;5.18;3.50;;;2.30;99.90;;;;;;5094768;28;20039;-75
2022/03/06 04:45:10;;;;;;;6.70;3.60;;;2.40;99.90;;;;;;5111720;28;20082;-76
2022/03/06 04:47:37;;;;;;;6.18;3.40;;;2.10;99.90;;;;;;5112739;27;20040;-74
2022/03/06 04:50:04;;;;;;;7.53;4.00;;;2.10;99.90;;;;;;5116371;28;20040;-76
2022/03/06 04:52:29;;;;;;;5.55;3.83;;;2.50;99.90;;;;;;5092389;28;20090;-75
2022/03/06 04:54:55;;;;;;;6.70;3.70;;;2.60;99.90;;;;;;5088655;28;20079;-75
2022/03/06 04:57:21;;;;;;;6.63;3.85;;;2.40;99.90;;;;;;5114131;27;20034;-75
2022/03/06 04:59:46;;;;;;;6.13;3.88;;;2.50;99.90;;;;;;5093567;28;20035;-75
2022/03/06 05:02:12;;;;;;;5.93;3.70;;;2.40;99.90;;;;;;5069693;28;20040;-74
2022/03/06 05:04:38;;;;;;;7.30;4.03;;;2.30;99.90;;;;;;5057392;28;20046;-76
2022/03/06 05:07:04;;;;;;;7.45;3.90;;;3.00;99.90;;;;;;5090030;28;20392;-76
2022/03/06 05:09:30;;;;;;;7.78;4.03;;;1.90;99.90;;;;;;5090594;27;20428;-77
2022/03/06 05:11:55;;;;;;;6.05;3.50;;;2.30;99.90;;;;;;5129494;27;20051;-77
2022/03/06 05:14:21;;;;;;;8.95;3.60;;;2.20;99.90;;;;;;5077503;28;20032;-76
2022/03/06 05:16:47;;;;;;;8.15;3.60;;;1.60;99.90;;;;;;5094493;28;20071;-75
2022/03/06 05:19:13;;;;;;;6.82;3.33;;;3.20;99.90;;;;;;5088340;27;20054;-75
2022/03/06 05:21:38;;;;;;;5.95;3.47;;;2.10;99.90;;;;;;5130701;27;20039;-76
2022/03/06 05:24:05;;;;;;;5.93;3.20;;;2.00;99.90;;;;;;5089846;28;20040;-77
2022/03/06 05:26:31;;;;;;;6.82;3.30;;;1.90;99.90;;;;;;5073162;28;20075;-76
2022/03/06 05:28:56;;;;;;;4.20;3.22;;;1.80;99.90;;;;;;5091274;28;20040;-76
2022/03/06 05:31:22;;;;;;;6.95;3.25;;;1.60;99.90;;;;;;5055423;28;20478;-75
2022/03/06 05:33:48;;;;;;;7.03;3.72;;;1.70;99.90;;;;;;5072941;28;20391;-75
2022/03/06 05:36:14;;;;;;;5.28;3.25;;;2.40;99.90;;;;;;5039022;28;20036;-76
2022/03/06 05:38:40;;;;;;;4.70;3.45;;;2.00;99.90;;;;;;5095578;28;20140;-75
2022/03/06 05:41:05;;;;;;;6.05;3.47;;;1.50;99.90;;;;;;5130237;28;20050;-76
2022/03/06 05:43:31;;;;;;;8.75;4.05;;;1.80;99.90;;;;;;5106715;28;20055;-76
2022/03/06 05:45:58;;;;;;;6.63;3.50;;;2.00;99.90;;;;;;5088982;28;20049;-75
2022/03/06 05:48:24;;;;;;;6.72;3.85;;;1.30;99.90;;;;;;5072121;28;20036;-77
2022/03/06 05:50:50;;;;;;;6.72;3.75;;;1.90;99.90;;;;;;5106230;28;20045;-75
2022/03/06 05:53:15;;;;;;;6.60;3.50;;;1.90;99.90;;;;;;5126699;28;20469;-76
2022/03/06 05:55:41;;;;;;;4.97;3.65;;;1.50;99.90;;;;;;5094957;28;20040;-76
2022/03/06 05:58:07;;;;;;;6.20;3.90;;;2.00;99.90;;;;;;5089229;28;20474;-75
2022/03/06 06:00:33;;;;;;;6.45;3.65;;;1.50;99.90;;;;;;5073523;28;20620;-75
2022/03/06 06:02:59;;;;;;;5.97;3.50;;;2.10;99.90;;;;;;5092421;28;20043;-75
2022/03/06 06:05:25;;;;;;;5.65;4.15;;;2.40;99.90;;;;;;5090102;28;20658;-75
2022/03/06 06:07:51;;;;;;;6.97;4.10;;;2.50;99.90;;;;;;5091536;28;20040;-76
2022/03/06 06:10:18;;;;;;;5.78;3.97;;;2.00;99.90;;;;;;5108734;28;20099;-76
2022/03/06 06:12:43;;;;;;;4.75;3.53;;;1.50;99.90;;;;;;5120594;27;20429;-74
2022/03/06 06:15:10;;;;;;;6.57;4.43;;;1.60;99.90;;;;;;5093396;27;20043;-75
2022/03/06 06:17:36;;;;;;;4.55;3.88;;;2.20;99.90;;;;;;5103461;28;20538;-76
2022/03/06 06:20:04;;;;;;;5.70;4.50;;;1.50;99.90;;;;;;5069570;28;20131;-72
2022/03/06 06:22:31;;;;;;;4.30;3.50;;;1.60;99.90;;;;;;5095291;28;20077;-76
2022/03/06 06:24:58;;;;;;;4.60;3.90;;;1.60;99.90;;;;;;5105886;27;20062;-75
2022/03/06 06:27:23;;;;;;;7.85;3.70;;;1.80;99.90;;;;;;5095075;28;20393;-75
2022/03/06 06:29:49;;;;;;;5.90;3.40;;;2.70;99.90;;;;;;5123209;27;20126;-75
2022/03/06 06:32:15;;;;;;;6.68;3.55;;;2.30;99.90;;;;;;5074304;28;20054;-74
2022/03/06 06:34:42;;;;;;;5.85;3.78;;;2.20;99.90;;;;;;5090098;28;20032;-74
2022/03/06 06:37:08;;;;;;;3.53;3.22;;;1.30;99.90;;;;;;5097734;27;20064;-77
2022/03/06 06:39:34;;;;;;;5.63;3.70;;;1.90;99.90;;;;;;5086217;28;20079;-74
2022/03/06 06:42:01;;;;;;;3.92;3.10;;;1.50;99.90;;;;;;5107162;28;20051;-74
2022/03/06 06:44:27;;;;;;;7.13;3.35;;;1.70;99.90;;;;;;5112398;28;20062;-75
2022/03/06 06:46:53;;;;;;;3.35;3.03;;;1.80;99.90;;;;;;5102160;27;20039;-74
2022/03/06 06:49:18;;;;;;;4.72;2.90;;;1.80;99.90;;;;;;5114875;27;20051;-74
2022/03/06 06:51:44;;;;;;;4.07;2.95;;;1.80;99.90;;;;;;5098031;28;20036;-74
2022/03/06 06:54:10;;;;;;;5.25;3.25;;;1.40;99.90;;;;;;5112326;28;20036;-75
2022/03/06 06:56:36;;;;;;;5.35;3.20;;;1.60;99.90;;;;;;5074578;28;20032;-74
2022/03/06 06:59:02;;;;;;;4.40;3.08;;;1.80;99.90;;;;;;5112013;28;20039;-74
2022/03/06 07:01:27;;;;;;;3.92;2.90;;;1.90;99.90;;;;;;5110425;27;20031;-76
2022/03/06 07:03:53;;;;;;;6.82;3.03;;;2.40;99.90;;;;;;5095067;28;20158;-76
2022/03/06 07:06:19;;;;;;;3.45;2.72;;;2.40;99.90;;;;;;5098023;27;20498;-77
2022/03/06 07:08:44;;;;;;;3.67;2.47;;;2.90;99.90;;;;;;5094817;27;20035;-76
2022/03/06 07:11:10;;;;;;;3.28;2.05;;;2.40;99.90;;;;;;5075965;28;20478;-75
2022/03/06 07:13:36;;;;;;;2.90;2.67;;;2.90;99.90;;;;;;5077508;28;20434;-76
2022/03/06 07:16:02;;;;;;;5.20;2.70;;;2.60;99.90;;;;;;5084191;28;20031;-74
2022/03/06 07:18:28;;;;;;;3.78;2.30;;;2.20;99.90;;;;;;5116292;27;20045;-75
2022/03/06 07:20:53;;;;;;;4.32;2.42;;;2.50;99.90;;;;;;5106475;27;20043;-77
2022/03/06 07:23:19;;;;;;;2.63;2.28;;;2.90;99.90;;;;;;5106606;27;20047;-76
2022/03/06 07:25:45;;;;;;;2.45;2.15;;;2.50;99.90;;;;;;5112967;27;20248;-75
2022/03/06 07:28:11;;;;;;;3.00;1.98;;;2.30;99.90;;;;;;5115462;27;20043;-76
2022/03/06 07:30:36;;;;;;;3.50;2.10;;;2.30;99.90;;;;;;5086533;28;20039;-75
2022/03/06 07:33:02;;;;;;;4.10;2.50;;;2.50;99.90;;;;;;5095317;28;20083;-74
2022/03/06 07:35:29;;;;;;;3.95;2.13;;;2.90;99.90;;;;;;5093368;28;20144;-74
2022/03/06 07:37:54;;;;;;;3.33;2.35;;;2.60;99.90;;;;;;5095547;28;20474;-74
2022/03/06 07:40:22;;;;;;;4.85;3.30;;;2.90;99.90;;;;;;5113288;27;20046;-75
2022/03/06 07:42:48;;;;;;;3.30;2.95;;;2.70;99.90;;;;;;5090055;28;20044;-73
2022/03/06 07:45:15;;;;;;;4.68;4.13;;;2.90;99.90;;;;;;5109505;27;20126;-73
2022/03/06 07:47:41;;;;;;;4.32;3.10;;;3.10;99.90;;;;;;5104577;28;20114;-76
2022/03/06 07:50:09;;;;;;;3.38;2.53;;;3.10;99.90;;;;;;5092551;28;20127;-72
2022/03/06 07:52:35;;;;;;;4.05;3.65;;;3.20;99.90;;;;;;5109365;28;20044;-74
2022/03/06 07:55:01;;;;;;;4.72;3.20;;;3.10;99.90;;;;;;5092139;27;20135;-73
2022/03/06 07:57:27;;;;;;;5.07;4.15;;;3.30;99.90;;;;;;5107942;28;20044;-74
2022/03/06 07:59:53;;;;;;;4.70;3.80;;;3.40;99.90;;;;;;5091513;28;20039;-75
2022/03/06 08:02:18;;;;;;;4.57;2.75;;;4.20;99.90;;;;;;5088646;28;20345;-73
2022/03/06 08:04:44;;;;;;;4.40;2.38;;;3.30;99.90;;;;;;5080981;27;20043;-73
2022/03/06 08:07:10;;;;;;;4.80;3.10;;;3.40;99.90;;;;;;5100719;28;20054;-73
2022/03/06 08:09:35;;;;;;;19.50;13.90;;;3.40;99.90;;;;;;5113301;28;20054;-74
2022/03/06 08:12:01;;;;;;;6.90;4.18;;;3.40;99.90;;;;;;5079989;27;20039;-74
2022/03/06 08:14:28;;;;;;;5.05;3.35;;;3.40;99.90;;;;;;5092668;27;20038;-74
2022/03/06 08:16:54;;;;;;;3.92;2.47;;;3.40;99.90;;;;;;5103392;27;20046;-74
2022/03/06 08:19:20;;;;;;;3.33;2.97;;;3.40;99.90;;;;;;5078764;28;20027;-73
2022/03/06 08:21:48;;;;;;;2.85;2.25;;;3.40;99.90;;;;;;5090226;28;20121;-74
2022/03/06 08:24:17;;;;;;;3.22;2.00;;;3.40;99.90;;;;;;5061978;28;20051;-75
2022/03/06 08:26:43;;;;;;;5.93;2.35;;;3.40;99.90;;;;;;5118808;27;20050;-73
2022/03/06 08:29:09;;;;;;;3.67;2.30;;;3.50;99.90;;;;;;5092948;28;20031;-74
2022/03/06 08:31:35;;;;;;;3.53;2.35;;;4.10;99.90;;;;;;5114479;27;20088;-74
2022/03/06 08:34:00;;;;;;;5.03;2.30;;;3.50;99.90;;;;;;5075697;28;20402;-73
2022/03/06 08:36:26;;;;;;;2.97;2.20;;;3.50;99.90;;;;;;5108956;27;20467;-74
2022/03/06 08:38:52;;;;;;;3.85;2.10;;;3.60;99.90;;;;;;5109833;28;20513;-74
2022/03/06 08:41:18;;;;;;;3.03;2.10;;;4.00;99.90;;;;;;5109309;27;20101;-73
2022/03/06 08:43:43;;;;;;;2.28;1.90;;;3.60;99.90;;;;;;5114595;27;20032;-73
2022/03/06 08:46:09;;;;;;;3.22;2.00;;;3.70;99.90;;;;;;5074794;28;20096;-73
2022/03/06 08:48:38;;;;;;;3.13;2.08;;;4.20;99.90;;;;;;5079333;28;20036;-73
2022/03/06 08:51:05;;;;;;;5.75;2.90;;;4.90;99.90;;;;;;5110148;28;20031;-73
2022/03/06 08:53:31;;;;;;;2.60;2.20;;;3.70;99.90;;;;;;5120209;27;20067;-73
2022/03/06 08:55:57;;;;;;;3.28;2.10;;;4.00;99.90;;;;;;5095311;27;20078;-73
2022/03/06 08:58:23;;;;;;;3.03;2.20;;;4.00;99.90;;;;;;5078514;28;20031;-71
2022/03/06 09:00:49;;;;;;;2.85;2.10;;;4.10;99.90;;;;;;5082871;28;20097;-71
2022/03/06 09:03:14;;;;;;;4.22;3.10;;;4.90;99.90;;;;;;5091845;27;20371;-73
2022/03/06 09:05:40;;;;;;;5.10;2.20;;;3.90;99.90;;;;;;5109655;27;20091;-73
2022/03/06 09:08:09;;;;;;;2.95;2.08;;;4.10;99.90;;;;;;5097664;28;20129;-73
2022/03/06 09:10:36;;;;;;;3.53;2.05;;;4.10;99.90;;;;;;5107913;28;20551;-72
2022/03/06 09:13:02;;;;;;;3.50;1.95;;;4.00;99.90;;;;;;5116751;27;20367;-73
2022/03/06 09:15:28;;;;;;;3.00;1.90;;;3.90;99.90;;;;;;5083640;27;20068;-73
2022/03/06 09:17:54;;;;;;;6.03;3.00;;;4.20;99.90;;;;;;5103262;28;20118;-73
2022/03/06 09:20:20;;;;;;;3.38;2.30;;;4.30;99.90;;;;;;5105089;28;20040;-73
2022/03/06 09:22:46;;;;;;;4.55;2.60;;;4.30;99.90;;;;;;5080391;28;20672;-74
2022/03/06 09:25:12;;;;;;;3.30;2.10;;;4.50;99.90;;;;;;5071486;28;20044;-73
2022/03/06 09:27:38;;;;;;;3.67;2.22;;;4.70;99.90;;;;;;5084083;28;20150;-73
2022/03/06 09:30:07;;;;;;;3.70;2.30;;;4.50;99.90;;;;;;5100008;28;20043;-72
2022/03/06 09:32:32;;;;;;;3.58;2.20;;;4.60;99.90;;;;;;5085034;28;20052;-73
2022/03/06 09:34:58;;;;;;;3.28;2.42;;;5.10;99.90;;;;;;5081879;28;20036;-73
2022/03/06 09:37:24;;;;;;;3.00;2.58;;;5.00;99.90;;;;;;5084120;28;20040;-73
2022/03/06 09:39:50;;;;;;;2.45;2.00;;;5.00;99.90;;;;;;5085062;28;20502;-73
2022/03/06 09:42:19;;;;;;;3.22;2.25;;;5.30;99.90;;;;;;5085612;28;20047;-73
2022/03/06 09:44:47;;;;;;;2.55;1.90;;;5.20;99.90;;;;;;5101737;28;21054;-72
2022/03/06 09:47:13;;;;;;;5.05;2.20;;;5.40;99.90;;;;;;5098723;28;20131;-73
2022/03/06 09:49:43;;;;;;;3.03;2.10;;;4.80;99.90;;;;;;5106631;28;20131;-72
2022/03/06 09:52:09;;;;;;;3.97;2.40;;;5.00;99.90;;;;;;5116651;27;20723;-73
2022/03/06 09:54:35;;;;;;;2.75;2.30;;;5.10;99.90;;;;;;5106155;27;20035;-73
2022/03/06 09:57:01;;;;;;;3.13;2.47;;;5.10;99.90;;;;;;5087644;28;20036;-73
2022/03/06 09:59:27;;;;;;;3.20;2.55;;;5.10;99.90;;;;;;5072764;28;20032;-72
2022/03/06 10:01:53;;;;;;;6.22;3.10;;;5.60;99.90;;;;;;5089058;28;20078;-73
2022/03/06 10:04:26;;;;;;;3.42;2.22;;;5.60;99.90;;;;;;5104675;27;20470;-73
2022/03/06 10:07:14;;;;;;;4.30;2.63;;;5.40;99.90;;;;;;5104621;28;20047;-73
2022/03/06 10:09:48;;;;;;;2.78;2.08;;;5.80;99.90;;;;;;5088164;28;20047;-73
2022/03/06 10:12:43;;;;;;;4.22;2.60;;;5.90;99.90;;;;;;5087441;27;20040;-73
2022/03/06 10:15:11;;;;;;;4.80;2.33;;;5.70;99.90;;;;;;5108699;27;20044;-73
2022/03/06 10:17:36;;;;;;;2.78;2.30;;;6.40;99.90;;;;;;5094881;27;20046;-73
2022/03/06 10:20:10;;;;;;;4.50;2.40;;;6.30;99.90;;;;;;5106046;27;20043;-72
2022/03/06 10:22:41;;;;;;;3.10;2.35;;;6.10;99.90;;;;;;5080659;27;20039;-73
2022/03/06 10:25:21;;;;;;;3.45;2.75;;;5.90;99.90;;;;;;5081893;27;20043;-72
2022/03/06 10:27:57;;;;;;;2.78;2.20;;;5.80;99.90;;;;;;5101856;27;20058;-73
2022/03/06 10:30:23;;;;;;;4.05;2.63;;;5.70;99.90;;;;;;5098395;27;20054;-73
2022/03/06 10:32:48;;;;;;;5.00;2.50;;;5.40;99.90;;;;;;5098018;27;20438;-73
2022/03/06 10:35:14;;;;;;;2.88;2.50;;;5.80;99.90;;;;;;5094146;27;20044;-73
2022/03/06 10:37:40;;;;;;;5.00;2.70;;;5.80;99.90;;;;;;5111046;27;20039;-72
2022/03/06 10:40:07;;;;;;;3.63;2.08;;;5.90;99.90;;;;;;5125037;27;20087;-72
2022/03/06 10:42:33;;;;;;;5.82;2.50;;;5.70;99.90;;;;;;5103929;27;20118;-72
2022/03/06 10:44:59;;;;;;;3.88;2.30;;;5.40;99.90;;;;;;5121144;27;20569;-72
2022/03/06 10:47:24;;;;;;;6.20;2.60;;;5.60;99.90;;;;;;5127153;27;20185;-72
2022/03/06 10:50:00;;;;;;;4.43;2.63;;;5.50;99.90;;;;;;5080569;27;20050;-73
2022/03/06 10:52:26;;;;;;;3.33;2.85;;;5.80;99.90;;;;;;5081307;28;20039;-73
2022/03/06 10:54:54;;;;;;;4.13;2.60;;;5.60;99.90;;;;;;5055170;28;20040;-72
2022/03/06 10:57:20;;;;;;;5.47;2.92;;;5.80;99.90;;;;;;5102970;27;20441;-71
2022/03/06 10:59:48;;;;;;;4.70;3.10;;;5.80;99.90;;;;;;5084358;28;20044;-72
2022/03/06 11:02:14;;;;;;;3.17;2.33;;;5.90;99.90;;;;;;5089748;27;20039;-71
2022/03/06 11:04:40;;;;;;;4.30;3.03;;;6.00;99.90;;;;;;5097192;28;20067;-72
2022/03/06 11:07:06;;;;;;;5.25;2.90;;;5.80;99.90;;;;;;5110973;27;20039;-72
2022/03/06 11:09:32;;;;;;;3.83;2.88;;;5.80;99.90;;;;;;5073644;27;20413;-73
2022/03/06 11:11:58;;;;;;;4.32;2.55;;;5.80;99.90;;;;;;5091521;27;20036;-72
2022/03/06 11:14:25;;;;;;;4.85;2.75;;;5.90;99.90;;;;;;5108319;27;20750;-73
2022/03/06 11:16:51;;;;;;;3.20;2.55;;;6.20;99.90;;;;;;5083599;27;20079;-72
2022/03/06 11:19:17;;;;;;;3.50;2.70;;;6.20;99.90;;;;;;5072383;28;20099;-72
2022/03/06 11:21:45;;;;;;;2.95;2.45;;;6.20;99.90;;;;;;5077613;28;20073;-72
2022/03/06 11:24:14;;;;;;;3.92;2.60;;;6.40;99.90;;;;;;5106374;27;20127;-73
2022/03/06 11:27:03;;;;;;;4.13;2.90;;;6.20;99.90;;;;;;5092855;28;20084;-73
2022/03/06 11:30:06;;;;;;;3.40;2.15;;;6.20;99.90;;;;;;5108368;27;20113;-71
2022/03/06 11:32:35;;;;;;;6.53;3.10;;;6.50;99.90;;;;;;5100171;27;20051;-72
2022/03/06 11:35:15;;;;;;;3.00;2.35;;;6.90;99.90;;;;;;5098322;28;20067;-72
2022/03/06 11:37:56;;;;;;;3.92;2.60;;;6.80;99.90;;;;;;5105454;27;20391;-72
2022/03/06 11:40:43;;;;;;;4.32;2.58;;;6.50;99.90;;;;;;5123262;27;20791;-72
2022/03/06 11:43:09;;;;;;;3.45;2.83;;;6.30;99.90;;;;;;5091243;27;20119;-71
2022/03/06 11:45:51;;;;;;;6.15;2.80;;;6.30;99.90;;;;;;5117483;27;20681;-72
2022/03/06 11:48:33;;;;;;;6.25;3.15;;;6.00;99.90;;;;;;5076944;28;20705;-72
2022/03/06 11:51:28;;;;;;;4.72;2.80;;;6.10;99.90;;;;;;5111444;27;20058;-72
2022/03/06 11:54:06;;;;;;;4.80;2.92;;;6.10;99.90;;;;;;5093918;27;20047;-73
2022/03/06 11:56:34;;;;;;;4.70;2.70;;;6.10;99.90;;;;;;5088261;28;20040;-73
2022/03/06 11:59:17;;;;;;;3.55;2.53;;;6.60;99.90;;;;;;5078666;28;20552;-73
2022/03/06 12:01:50;;;;;;;3.28;2.80;;;5.90;99.90;;;;;;5096026;28;20076;-73
2022/03/06 12:04:18;;;;;;;4.43;2.80;;;5.90;99.90;;;;;;5091855;27;20047;-73
2022/03/06 12:06:52;;;;;;;3.80;2.75;;;5.80;99.90;;;;;;5111142;27;20513;-72
2022/03/06 12:09:29;;;;;;;5.25;2.80;;;6.00;99.90;;;;;;5104186;27;20067;-73
2022/03/06 12:12:00;;;;;;;4.57;2.42;;;6.10;99.90;;;;;;5083343;28;20130;-73
2022/03/06 12:14:31;;;;;;;6.28;2.88;;;6.10;99.90;;;;;;5086791;28;20467;-72
2022/03/06 12:17:10;;;;;;;4.10;2.55;;;6.10;99.90;;;;;;5079185;27;20043;-72
2022/03/06 12:19:45;;;;;;;4.80;3.08;;;6.30;99.90;;;;;;5104516;27;20070;-72
2022/03/06 12:22:28;;;;;;;4.13;2.70;;;6.40;99.90;;;;;;5113812;27;20050;-72
2022/03/06 12:25:06;;;;;;;3.28;2.53;;;6.10;99.90;;;;;;5115276;27;20042;-72
2022/03/06 12:27:33;;;;;;;4.68;2.70;;;6.00;99.90;;;;;;5094518;28;20035;-72
2022/03/06 12:30:01;;;;;;;4.93;2.90;;;6.30;99.90;;;;;;5095223;27;20043;-71
2022/03/06 12:32:31;;;;;;;3.55;2.65;;;6.50;99.90;;;;;;5078557;28;20044;-72
2022/03/06 12:35:06;;;;;;;5.50;2.83;;;6.50;99.90;;;;;;5107656;27;20704;-73
2022/03/06 12:37:37;;;;;;;4.28;2.72;;;6.40;99.90;;;;;;5100499;27;20039;-72
2022/03/06 12:40:07;;;;;;;4.40;2.92;;;6.30;99.90;;;;;;5098387;28;20609;-71
2022/03/06 12:42:35;;;;;;;4.63;2.60;;;6.60;99.90;;;;;;5091261;28;20047;-72
2022/03/06 12:45:06;;;;;;;4.57;2.58;;;6.40;99.90;;;;;;5108973;27;20058;-72
2022/03/06 12:47:37;;;;;;;4.28;2.65;;;6.50;99.90;;;;;;5082287;28;20039;-72
2022/03/06 12:50:06;;;;;;;6.93;3.05;;;6.40;99.90;;;;;;5098459;27;20035;-72
2022/03/06 12:52:32;;;;;;;6.57;2.58;;;6.30;99.90;;;;;;5120984;27;20045;-72
2022/03/06 12:55:01;;;;;;;5.18;2.75;;;6.30;99.90;;;;;;5057687;28;20115;-72
2022/03/06 12:57:35;;;;;;;3.35;2.80;;;6.40;99.90;;;;;;5104823;28;20411;-72